createdAt,value
2023-09-08T00:01:12.841Z,7.75
2023-09-08T00:03:40.813Z,7.60
2023-09-08T00:06:09.166Z,8.35
2023-09-08T00:08:37.353Z,7.80
2023-09-08T00:11:06.466Z,7.25
2023-09-08T00:13:34.572Z,7.93
2023-09-08T00:16:03.269Z,6.82
2023-09-08T00:18:31.315Z,7.63
2023-09-08T00:20:59.636Z,8.18
2023-09-08T00:23:29.583Z,8.18
2023-09-08T00:26:00.021Z,8.30
2023-09-08T00:28:28.203Z,8.15
2023-09-08T00:30:56.463Z,8.25
2023-09-08T00:33:24.405Z,8.63
2023-09-08T00:35:54.857Z,8.35
2023-09-08T00:38:23.124Z,7.50
2023-09-08T00:40:51.515Z,8.27
2023-09-08T00:43:19.676Z,8.07
2023-09-08T00:45:49.180Z,8.07
2023-09-08T00:48:17.401Z,9.00
2023-09-08T00:50:46.292Z,8.35
2023-09-08T00:53:15.232Z,7.65
2023-09-08T00:55:43.784Z,8.02
2023-09-08T00:58:12.991Z,7.03
2023-09-08T01:00:41.388Z,7.45
2023-09-08T01:03:09.427Z,7.45
2023-09-08T01:05:38.754Z,8.07
2023-09-08T01:08:08.058Z,7.40
2023-09-08T01:10:38.398Z,7.80
2023-09-08T01:13:06.337Z,7.20
2023-09-08T01:15:35.909Z,7.63
2023-09-08T01:18:04.104Z,7.43
2023-09-08T01:20:50.245Z,7.95
2023-09-08T01:23:53.834Z,8.20
2023-09-08T01:26:27.891Z,7.80
2023-09-08T01:28:56.920Z,8.20
2023-09-08T01:31:25.920Z,7.68
2023-09-08T01:33:54.036Z,7.97
2023-09-08T01:36:22.491Z,7.55
2023-09-08T01:38:50.453Z,8.23
2023-09-08T01:41:18.857Z,8.32
2023-09-08T01:43:46.885Z,8.02
2023-09-08T01:46:15.294Z,7.82
2023-09-08T01:48:43.720Z,8.40
2023-09-08T01:51:13.100Z,8.13
2023-09-08T01:53:42.387Z,7.90
2023-09-08T01:56:12.285Z,7.43
2023-09-08T01:58:40.171Z,7.63
2023-09-08T02:01:09.128Z,8.30
2023-09-08T02:03:37.110Z,7.45
2023-09-08T02:06:06.733Z,8.15
2023-09-08T02:08:34.853Z,8.65
2023-09-08T02:11:03.156Z,7.57
2023-09-08T02:13:32.182Z,7.90
2023-09-08T02:16:01.203Z,7.63
2023-09-08T02:18:30.225Z,7.57
2023-09-08T02:20:58.700Z,8.25
2023-09-08T02:23:27.376Z,8.57
2023-09-08T02:25:55.777Z,7.82
2023-09-08T02:28:23.716Z,7.65
2023-09-08T02:30:56.113Z,8.05
2023-09-08T02:33:24.507Z,7.90
2023-09-08T02:35:53.233Z,7.47
2023-09-08T02:38:21.577Z,8.15
2023-09-08T02:40:50.244Z,7.70
2023-09-08T02:43:18.235Z,7.47
2023-09-08T02:45:48.612Z,8.00
2023-09-08T02:48:17.788Z,8.35
2023-09-08T02:50:46.124Z,7.90
2023-09-08T02:53:13.957Z,7.30
2023-09-08T02:55:42.474Z,8.30
2023-09-08T02:58:10.448Z,8.07
2023-09-08T03:00:38.686Z,8.05
2023-09-08T03:03:06.956Z,7.95
2023-09-08T03:05:35.875Z,8.00
2023-09-08T03:08:06.530Z,8.73
2023-09-08T03:10:38.044Z,8.30
2023-09-08T03:13:06.433Z,8.25
2023-09-08T03:15:36.062Z,8.30
2023-09-08T03:18:04.326Z,8.00
2023-09-08T03:20:32.710Z,7.80
2023-09-08T03:23:00.590Z,7.65
2023-09-08T03:25:29.098Z,7.03
2023-09-08T03:27:56.957Z,7.70
2023-09-08T03:30:25.353Z,8.27
2023-09-08T03:32:53.619Z,8.40
2023-09-08T03:35:21.917Z,8.43
2023-09-08T03:37:50.007Z,8.23
2023-09-08T03:40:18.443Z,8.63
2023-09-08T03:42:47.082Z,7.65
2023-09-08T03:45:15.342Z,8.05
2023-09-08T03:47:43.490Z,8.50
2023-09-08T03:50:12.028Z,8.60
2023-09-08T03:52:39.900Z,8.88
2023-09-08T03:55:11.469Z,8.60
2023-09-08T03:57:39.619Z,7.88
2023-09-08T04:00:08.982Z,8.30
2023-09-08T04:02:42.615Z,8.35
2023-09-08T04:05:12.119Z,8.20
2023-09-08T04:07:40.482Z,8.98
2023-09-08T04:10:09.488Z,8.52
2023-09-08T04:12:37.557Z,9.77
2023-09-08T04:15:06.240Z,10.15
2023-09-08T04:17:34.847Z,10.90
2023-09-08T04:20:07.226Z,10.50
2023-09-08T04:22:35.746Z,10.43
2023-09-08T04:25:07.019Z,10.52
2023-09-08T04:27:40.121Z,10.70
2023-09-08T04:30:09.531Z,11.93
2023-09-08T04:32:39.082Z,12.45
2023-09-08T04:35:08.879Z,12.00
2023-09-08T04:37:38.566Z,13.27
2023-09-08T04:40:08.883Z,13.95
2023-09-08T04:42:37.652Z,13.23
2023-09-08T04:45:07.532Z,12.30
2023-09-08T04:47:36.634Z,11.45
2023-09-08T04:50:05.286Z,11.23
2023-09-08T04:52:33.265Z,12.65
2023-09-08T04:55:03.616Z,12.65
2023-09-08T04:57:32.725Z,11.80
2023-09-08T05:00:01.410Z,11.57
2023-09-08T05:02:35.576Z,11.52
2023-09-08T05:05:05.856Z,11.70
2023-09-08T05:07:34.191Z,12.35
2023-09-08T05:10:02.791Z,13.00
2023-09-08T05:12:36.089Z,13.07
2023-09-08T05:15:11.746Z,11.93
2023-09-08T05:17:42.293Z,12.48
2023-09-08T05:20:11.713Z,10.93
2023-09-08T05:22:40.432Z,12.20
2023-09-08T05:25:09.852Z,14.00
2023-09-08T05:27:38.138Z,13.13
2023-09-08T05:30:10.843Z,12.45
2023-09-08T05:32:40.139Z,12.90
2023-09-08T05:35:08.809Z,13.73
2023-09-08T05:37:36.840Z,12.65
2023-09-08T05:40:06.519Z,12.57
2023-09-08T05:42:34.667Z,11.93
2023-09-08T05:45:02.923Z,11.68
2023-09-08T05:47:32.832Z,12.13
2023-09-08T05:50:01.191Z,11.88
2023-09-08T05:52:34.489Z,11.93
2023-09-08T05:55:04.260Z,11.88
2023-09-08T05:57:32.951Z,12.30
2023-09-08T06:00:01.318Z,10.38
2023-09-08T06:02:32.873Z,11.07
2023-09-08T06:05:01.505Z,11.45
2023-09-08T06:07:31.526Z,10.23
2023-09-08T06:09:59.876Z,10.13
2023-09-08T06:12:28.047Z,9.75
2023-09-08T06:14:56.621Z,9.38
2023-09-08T06:17:24.680Z,9.43
2023-09-08T06:19:53.640Z,11.73
2023-09-08T06:22:21.830Z,12.60
2023-09-08T06:24:50.972Z,11.80
2023-09-08T06:27:19.049Z,11.77
2023-09-08T06:29:47.449Z,11.77
2023-09-08T06:32:16.628Z,12.40
2023-09-08T06:34:48.176Z,11.50
2023-09-08T06:37:16.423Z,10.38
2023-09-08T06:39:45.078Z,10.35
2023-09-08T06:42:12.986Z,10.38
2023-09-08T06:44:49.706Z,10.45
2023-09-08T06:47:18.120Z,10.60
2023-09-08T06:49:46.696Z,10.15
2023-09-08T06:52:14.795Z,10.18
2023-09-08T06:54:43.606Z,10.85
2023-09-08T06:57:12.518Z,11.27
2023-09-08T06:59:41.077Z,10.18
2023-09-08T07:02:09.521Z,10.90
2023-09-08T07:04:38.080Z,10.38
2023-09-08T07:07:08.620Z,10.68
2023-09-08T07:09:39.382Z,10.30
2023-09-08T07:12:10.067Z,9.98
2023-09-08T07:14:39.787Z,10.10
2023-09-08T07:17:07.765Z,9.95
2023-09-08T07:19:36.415Z,9.93
2023-09-08T07:22:04.584Z,9.52
2023-09-08T07:24:33.178Z,9.60
2023-09-08T07:27:02.134Z,11.15
2023-09-08T07:29:31.119Z,9.73
2023-09-08T07:31:59.741Z,9.52
2023-09-08T07:34:28.616Z,9.43
2023-09-08T07:36:56.694Z,9.80
2023-09-08T07:39:25.197Z,9.85
2023-09-08T07:41:54.779Z,10.18
2023-09-08T07:44:23.533Z,9.55
2023-09-08T07:46:52.857Z,9.65
2023-09-08T07:49:21.553Z,10.55
2023-09-08T07:51:49.645Z,10.43
2023-09-08T07:54:20.511Z,10.75
2023-09-08T07:56:48.974Z,10.40
2023-09-08T07:59:17.757Z,9.88
2023-09-08T08:01:45.741Z,9.20
2023-09-08T08:04:14.160Z,9.63
2023-09-08T08:06:42.359Z,10.07
2023-09-08T08:09:11.735Z,9.38
2023-09-08T08:11:39.837Z,9.85
2023-09-08T08:14:08.243Z,8.48
2023-09-08T08:16:37.142Z,8.77
2023-09-08T08:19:05.606Z,9.25
2023-09-08T08:21:33.667Z,10.05
2023-09-08T08:24:02.310Z,9.52
2023-09-08T08:26:34.213Z,9.20
2023-09-08T08:29:02.945Z,9.15
2023-09-08T08:31:34.590Z,9.27
2023-09-08T08:34:03.072Z,9.55
2023-09-08T08:36:31.192Z,10.20
2023-09-08T08:38:59.709Z,9.48
2023-09-08T08:41:28.252Z,10.18
2023-09-08T08:43:57.534Z,9.43
2023-09-08T08:46:27.645Z,10.68
2023-09-08T08:48:56.240Z,10.75
2023-09-08T08:51:24.976Z,9.45
2023-09-08T08:53:53.491Z,9.63
2023-09-08T08:56:21.924Z,9.80
2023-09-08T08:58:51.932Z,10.25
2023-09-08T09:01:21.549Z,10.27
2023-09-08T09:03:51.586Z,10.07
2023-09-08T09:06:20.526Z,8.23
2023-09-08T09:08:48.763Z,10.35
2023-09-08T09:11:17.429Z,10.05
2023-09-08T09:13:49.009Z,9.90
2023-09-08T09:16:17.132Z,9.13
2023-09-08T09:19:01.154Z,10.15
2023-09-08T09:21:56.580Z,10.90
2023-09-08T09:24:38.495Z,9.88
2023-09-08T09:27:09.609Z,10.25
2023-09-08T09:29:48.786Z,9.73
2023-09-08T09:32:18.159Z,8.95
2023-09-08T09:34:51.566Z,9.73
2023-09-08T09:37:20.503Z,8.70
2023-09-08T09:39:55.098Z,8.32
2023-09-08T09:42:23.359Z,8.20
2023-09-08T09:44:53.502Z,8.77
2023-09-08T09:47:22.714Z,8.40
2023-09-08T09:49:51.233Z,9.23
2023-09-08T09:52:24.511Z,9.18
2023-09-08T09:54:58.118Z,8.68
2023-09-08T09:57:26.971Z,8.90
2023-09-08T09:59:56.337Z,8.68
2023-09-08T10:02:24.812Z,8.10
2023-09-08T10:04:55.378Z,8.38
2023-09-08T10:07:24.543Z,8.65
2023-09-08T10:09:53.691Z,7.93
2023-09-08T10:12:22.087Z,8.25
2023-09-08T10:14:54.973Z,7.82
2023-09-08T10:17:31.518Z,7.70
2023-09-08T10:20:03.019Z,7.63
2023-09-08T10:22:34.176Z,7.72
2023-09-08T10:25:07.270Z,8.10
2023-09-08T10:27:38.458Z,8.63
2023-09-08T10:30:09.060Z,8.93
2023-09-08T10:32:38.400Z,8.25
2023-09-08T10:35:08.172Z,8.38
2023-09-08T10:37:36.263Z,8.45
2023-09-08T10:40:24.023Z,8.18
2023-09-08T10:43:08.151Z,7.90
2023-09-08T10:45:37.347Z,8.43
2023-09-08T10:48:05.412Z,8.00
2023-09-08T10:50:40.335Z,10.30
2023-09-08T10:53:14.285Z,8.35
2023-09-08T10:56:10.716Z,8.18
2023-09-08T10:58:44.645Z,8.85
2023-09-08T11:01:24.051Z,9.45
2023-09-08T11:03:53.178Z,8.77
2023-09-08T11:06:25.601Z,8.90
2023-09-08T11:08:57.725Z,9.57
2023-09-08T11:11:28.683Z,8.70
2023-09-08T11:13:56.713Z,9.32
2023-09-08T11:16:30.939Z,9.18
2023-09-08T11:18:59.583Z,9.23
2023-09-08T11:21:28.376Z,9.20
2023-09-08T11:23:57.272Z,9.88
2023-09-08T11:26:25.709Z,9.27
2023-09-08T11:28:54.976Z,9.32
2023-09-08T11:31:23.539Z,9.40
2023-09-08T11:33:56.603Z,9.10
2023-09-08T11:36:24.977Z,8.57
2023-09-08T11:38:55.276Z,7.93
2023-09-08T11:41:25.305Z,8.32
2023-09-08T11:43:53.931Z,8.60
2023-09-08T11:46:23.062Z,8.60
2023-09-08T11:48:51.610Z,8.75
2023-09-08T11:51:24.982Z,9.30
2023-09-08T11:53:53.534Z,9.15
2023-09-08T11:56:21.813Z,7.65
2023-09-08T11:58:50.196Z,7.38
2023-09-08T12:01:19.462Z,7.50
2023-09-08T12:03:57.446Z,7.90
2023-09-08T12:06:30.009Z,8.30
2023-09-08T12:09:04.164Z,8.55
2023-09-08T12:11:36.599Z,7.95
2023-09-08T12:14:10.977Z,8.70
2023-09-08T12:16:40.659Z,9.40
2023-09-08T12:19:35.039Z,8.35
2023-09-08T12:22:05.249Z,8.45
2023-09-08T12:24:58.706Z,7.35
2023-09-08T12:27:28.071Z,8.10
2023-09-08T12:30:03.285Z,8.35
2023-09-08T12:32:37.888Z,7.75
2023-09-08T12:35:06.410Z,7.50
2023-09-08T12:37:35.488Z,7.55
2023-09-08T12:40:03.729Z,7.85
2023-09-08T12:42:37.585Z,7.90
2023-09-08T12:45:10.955Z,7.95
2023-09-08T12:47:40.550Z,8.00
2023-09-08T12:50:10.071Z,7.10
2023-09-08T12:52:38.489Z,7.28
2023-09-08T12:55:07.152Z,6.57
2023-09-08T12:57:37.079Z,7.05
2023-09-08T13:00:06.091Z,6.97
2023-09-08T13:02:40.686Z,7.50
2023-09-08T13:05:09.523Z,8.02
2023-09-08T13:07:37.850Z,7.20
2023-09-08T13:10:08.713Z,6.75
2023-09-08T13:12:37.247Z,6.72
2023-09-08T13:15:05.831Z,7.18
2023-09-08T13:17:35.521Z,7.05
2023-09-08T13:20:04.704Z,6.60
2023-09-08T13:22:33.145Z,5.85
2023-09-08T13:25:01.236Z,5.88
2023-09-08T13:27:32.268Z,5.80
2023-09-08T13:30:17.136Z,5.68
2023-09-08T13:32:46.458Z,6.10
2023-09-08T13:35:14.757Z,5.72
2023-09-08T13:37:43.842Z,5.10
2023-09-08T13:40:12.227Z,5.25
2023-09-08T13:42:40.588Z,4.72
2023-09-08T13:45:09.273Z,4.97
2023-09-08T13:47:40.135Z,4.65
2023-09-08T13:50:11.103Z,4.78
2023-09-08T13:52:43.610Z,4.80
2023-09-08T13:55:34.364Z,4.65
2023-09-08T13:58:02.132Z,5.70
2023-09-08T14:00:31.909Z,5.13
2023-09-08T14:03:06.665Z,4.93
2023-09-08T14:05:37.319Z,5.40
2023-09-08T14:08:16.493Z,4.95
2023-09-08T14:13:17.546Z,5.25
2023-09-08T14:15:45.937Z,5.18
2023-09-08T14:18:15.568Z,6.30
2023-09-08T14:20:44.314Z,6.65
2023-09-08T14:23:12.681Z,7.50
2023-09-08T14:25:40.674Z,8.30
2023-09-08T14:28:11.405Z,9.57
2023-09-08T14:30:39.545Z,9.88
2023-09-08T14:33:08.998Z,10.18
2023-09-08T14:35:37.113Z,9.80
2023-09-08T14:38:07.363Z,9.57
2023-09-08T14:40:35.376Z,9.27
2023-09-08T14:43:04.384Z,9.60
2023-09-08T14:45:32.462Z,8.68
2023-09-08T14:48:01.920Z,11.40
2023-09-08T14:50:30.295Z,9.18
2023-09-08T14:52:58.606Z,8.93
2023-09-08T14:55:26.901Z,7.97
2023-09-08T14:57:58.285Z,8.15
2023-09-08T15:00:28.423Z,8.35
2023-09-08T15:02:57.026Z,8.02
2023-09-08T15:05:24.895Z,7.57
2023-09-08T15:07:53.242Z,8.27
2023-09-08T15:10:21.423Z,7.35
2023-09-08T15:12:49.705Z,7.80
2023-09-08T15:15:19.865Z,7.85
2023-09-08T15:17:49.066Z,8.23
2023-09-08T15:20:16.983Z,8.27
2023-09-08T15:22:45.404Z,8.20
2023-09-08T15:25:14.418Z,7.95
2023-09-08T15:27:45.284Z,7.85
2023-09-08T15:30:15.233Z,8.00
2023-09-08T15:32:43.793Z,7.47
2023-09-08T15:35:11.734Z,7.82
2023-09-08T15:37:42.527Z,8.10
2023-09-08T15:40:15.642Z,8.20
2023-09-08T15:42:44.813Z,8.48
2023-09-08T15:45:13.000Z,8.68
2023-09-08T15:47:41.282Z,8.40
2023-09-08T15:50:10.376Z,8.60
2023-09-08T15:52:38.616Z,9.00
2023-09-08T15:55:06.990Z,9.23
2023-09-08T15:57:35.416Z,9.38
2023-09-08T16:00:04.428Z,8.60
2023-09-08T16:02:37.189Z,8.93
2023-09-08T16:05:06.098Z,8.40
2023-09-08T16:07:34.454Z,9.23
2023-09-08T16:10:02.461Z,9.68
2023-09-08T16:12:33.048Z,10.18
2023-09-08T16:15:00.964Z,12.23
2023-09-08T16:17:30.224Z,9.95
2023-09-08T16:19:58.177Z,10.50
2023-09-08T16:22:26.997Z,10.73
2023-09-08T16:24:55.562Z,10.75
2023-09-08T16:27:23.514Z,11.18
2023-09-08T16:29:52.019Z,10.82
2023-09-08T16:32:21.479Z,11.27
2023-09-08T16:34:50.985Z,11.20
2023-09-08T16:37:19.018Z,11.48
2023-09-08T16:39:47.441Z,11.70
2023-09-08T16:42:15.375Z,12.23
2023-09-08T16:44:44.861Z,11.60
2023-09-08T16:47:12.995Z,11.48
2023-09-08T16:49:42.266Z,11.38
2023-09-08T16:52:10.182Z,12.20
2023-09-08T16:54:39.447Z,11.88
2023-09-08T16:57:07.478Z,12.27
2023-09-08T16:59:36.174Z,12.40
2023-09-08T17:02:04.458Z,12.00
2023-09-08T17:04:37.218Z,11.63
2023-09-08T17:07:10.735Z,11.32
2023-09-08T17:09:39.364Z,10.93
2023-09-08T17:12:08.571Z,11.55
2023-09-08T17:14:51.310Z,11.55
2023-09-08T17:17:19.250Z,11.65
2023-09-08T17:19:47.577Z,12.20
2023-09-08T17:22:15.964Z,12.15
2023-09-08T17:28:20.171Z,12.25
2023-09-08T17:31:41.165Z,12.02
2023-09-08T17:34:20.121Z,11.73
2023-09-08T17:36:53.106Z,12.27
2023-09-08T17:39:21.262Z,11.57
2023-09-08T17:41:50.022Z,11.85
2023-09-08T17:44:18.029Z,12.43
2023-09-08T17:46:48.006Z,12.05
2023-09-08T17:49:16.210Z,14.20
2023-09-08T17:51:45.010Z,14.20
2023-09-08T17:54:13.350Z,14.93
2023-09-08T17:56:41.758Z,13.13
2023-09-08T17:59:10.570Z,14.00
2023-09-08T18:01:53.365Z,13.65
2023-09-08T18:04:23.326Z,13.25
2023-09-08T18:06:51.795Z,12.95
2023-09-08T18:09:20.582Z,14.27
2023-09-08T18:11:49.421Z,14.23
2023-09-08T18:14:18.041Z,15.48
2023-09-08T18:16:46.260Z,12.23
2023-09-08T18:19:14.916Z,13.32
2023-09-08T18:21:44.408Z,13.07
2023-09-08T18:24:12.723Z,12.75
2023-09-08T18:26:40.615Z,13.00
2023-09-08T18:29:09.297Z,13.05
2023-09-08T18:31:37.266Z,13.90
2023-09-08T18:34:06.090Z,12.77
2023-09-08T18:36:34.261Z,13.65
2023-09-08T18:39:02.593Z,10.57
2023-09-08T18:41:30.590Z,10.57
2023-09-08T18:44:00.927Z,11.40
2023-09-08T18:46:29.059Z,11.15
2023-09-08T18:48:57.552Z,13.43
2023-09-08T18:51:25.639Z,12.18
2023-09-08T18:53:56.074Z,12.35
2023-09-08T18:56:24.324Z,11.70
2023-09-08T18:58:52.580Z,12.35
2023-09-08T19:01:20.663Z,11.68
2023-09-08T19:03:49.387Z,11.82
2023-09-08T19:06:19.612Z,8.38
2023-09-08T19:08:47.984Z,5.70
2023-09-08T19:11:17.309Z,4.25
2023-09-08T19:14:24.307Z,3.58
2023-09-08T19:16:54.983Z,1.55
2023-09-08T19:19:23.423Z,1.73
2023-09-08T19:21:51.905Z,1.10
2023-09-08T19:24:21.157Z,1.48
2023-09-08T19:26:50.240Z,0.95
2023-09-08T19:29:22.904Z,1.15
2023-09-08T19:31:50.972Z,1.20
2023-09-08T19:34:19.998Z,1.30
2023-09-08T19:36:47.909Z,1.05
2023-09-08T19:39:16.299Z,1.00
2023-09-08T19:41:44.191Z,1.10
2023-09-08T19:44:12.494Z,1.00
2023-09-08T19:46:40.606Z,1.25
2023-09-08T19:49:09.327Z,1.20
2023-09-08T19:51:37.437Z,1.00
2023-09-08T19:54:05.865Z,1.17
2023-09-08T19:56:33.710Z,1.17
2023-09-08T19:59:04.879Z,1.23
2023-09-08T20:01:32.917Z,2.13
2023-09-08T20:04:01.670Z,2.58
2023-09-08T20:06:29.818Z,4.57
2023-09-08T20:08:58.209Z,3.20
2023-09-08T20:11:26.138Z,3.20
2023-09-08T20:13:55.428Z,4.30
2023-09-08T20:16:23.517Z,6.47
2023-09-08T20:18:52.023Z,8.18
2023-09-08T20:21:19.949Z,9.43
2023-09-08T20:23:48.356Z,10.25
2023-09-08T20:26:16.308Z,12.00
2023-09-08T20:28:47.389Z,11.43
2023-09-08T20:31:18.926Z,12.13
2023-09-08T20:33:48.119Z,12.60
2023-09-08T20:36:16.217Z,12.27
2023-09-08T20:38:44.960Z,13.43
2023-09-08T20:41:13.833Z,15.63
2023-09-08T20:43:42.455Z,11.93
2023-09-08T20:46:10.439Z,11.55
2023-09-08T20:48:44.914Z,10.18
2023-09-08T20:51:14.499Z,10.85
2023-09-08T20:53:43.641Z,10.82
2023-09-08T20:56:12.199Z,10.73
2023-09-08T20:58:42.369Z,9.63
2023-09-08T21:01:11.206Z,8.10
2023-09-08T21:03:40.629Z,7.00
2023-09-08T21:06:11.155Z,8.60
2023-09-08T21:08:40.063Z,8.65
2023-09-08T21:11:08.970Z,8.25
2023-09-08T21:13:37.413Z,9.13
2023-09-08T21:16:05.873Z,8.93
2023-09-08T21:18:34.404Z,9.95
2023-09-08T21:21:02.366Z,8.43
2023-09-08T21:23:31.540Z,7.85
2023-09-08T21:25:59.735Z,8.18
2023-09-08T21:28:28.080Z,7.82
2023-09-08T21:31:09.032Z,7.88
2023-09-08T21:33:39.438Z,7.57
2023-09-08T21:36:08.953Z,8.35
2023-09-08T21:38:37.734Z,9.35
2023-09-08T21:41:11.015Z,8.00
2023-09-08T21:43:39.806Z,7.65
2023-09-08T21:46:09.992Z,8.20
2023-09-08T21:48:40.134Z,8.60
2023-09-08T21:51:10.200Z,7.85
2023-09-08T21:53:38.935Z,8.20
2023-09-08T21:56:07.391Z,8.15
2023-09-08T21:58:36.173Z,8.40
2023-09-08T22:01:04.728Z,8.20
2023-09-08T22:03:33.190Z,7.85
2023-09-08T22:06:01.495Z,8.00
2023-09-08T22:08:30.072Z,9.15
2023-09-08T22:11:06.353Z,8.77
2023-09-08T22:13:37.350Z,8.18
2023-09-08T22:16:06.235Z,9.38
2023-09-08T22:18:34.910Z,11.63
2023-09-08T22:21:06.018Z,12.23
2023-09-08T22:23:35.077Z,13.40
2023-09-08T22:26:04.305Z,12.40
2023-09-08T22:28:32.500Z,11.80
2023-09-08T22:31:00.552Z,8.75
2023-09-08T22:33:31.527Z,8.05
2023-09-08T22:35:59.919Z,7.88
2023-09-08T22:38:28.687Z,6.70
2023-09-08T22:40:56.625Z,6.00
2023-09-08T22:43:25.965Z,5.85
2023-09-08T22:45:54.928Z,5.93
2023-09-08T22:48:24.090Z,5.57
2023-09-08T22:50:52.216Z,6.10
2023-09-08T22:53:21.086Z,6.28
2023-09-08T22:55:49.822Z,5.97
2023-09-08T22:58:18.202Z,6.00
2023-09-08T23:00:46.109Z,6.20
2023-09-08T23:03:14.543Z,6.13
2023-09-08T23:05:45.233Z,6.03
2023-09-08T23:08:13.653Z,6.40
2023-09-08T23:10:41.781Z,6.20
2023-09-08T23:13:10.137Z,6.30
2023-09-08T23:15:38.312Z,6.07
2023-09-08T23:18:10.977Z,6.05
2023-09-08T23:20:42.423Z,6.80
2023-09-08T23:23:10.961Z,5.85
2023-09-08T23:25:39.024Z,5.70
2023-09-08T23:28:09.800Z,6.72
2023-09-08T23:30:38.115Z,6.10
2023-09-08T23:33:07.853Z,7.00
2023-09-08T23:35:35.868Z,6.35
2023-09-08T23:38:04.532Z,6.10
2023-09-08T23:40:32.992Z,5.93
2023-09-08T23:43:01.364Z,6.20
2023-09-08T23:45:29.733Z,6.68
2023-09-08T23:47:57.981Z,6.10
2023-09-08T23:50:50.510Z,6.10
2023-09-08T23:53:20.060Z,6.47
2023-09-08T23:55:50.111Z,6.20
2023-09-08T23:58:22.134Z,6.07
